Time;durP1;ratioP1;P1;durP2;ratioP2;P2;SDS_P1;SDS_P2;PMS_P1;PMS_P2;Temp;Humidity;BMP_temperature;BMP_pressure;BME280_temperature;BME280_humidity;BME280_pressure;Samples;Min_cycle;Max_cycle;Signal;HPM_P1;HPM_P2
2022/10/31 00:01:46;;;;;;;27.23;23.75;;;;;;;;;;5116373;27;20027;-74
2022/10/31 00:04:11;;;;;;;79.13;58.55;;;;;;;;;;5096360;27;20035;-75
2022/10/31 00:06:37;;;;;;;77.18;61.75;;;;;;;;;;5096288;27;20027;-73
2022/10/31 00:09:03;;;;;;;65.93;53.10;;;;;;;;;;5121985;27;20385;-76
2022/10/31 00:11:28;;;;;;;49.03;40.88;;;;;;;;;;5123484;27;20054;-77
2022/10/31 00:13:53;;;;;;;48.00;39.88;;;;;;;;;;5124348;27;21288;-74
2022/10/31 00:16:20;;;;;;;29.15;23.27;;;;;;;;;;5122313;27;21214;-73
2022/10/31 00:18:53;;;;;;;41.38;32.78;;;;;;;;;;5125044;27;20411;-74
2022/10/31 00:21:18;;;;;;;62.75;50.22;;;;;;;;;;5123888;27;20018;-74
2022/10/31 00:23:44;;;;;;;68.28;52.70;;;;;;;;;;5124088;27;20027;-74
2022/10/31 00:26:09;;;;;;;58.13;45.55;;;;;;;;;;5124425;27;20181;-75
2022/10/31 00:28:34;;;;;;;59.65;46.15;;;;;;;;;;5123442;27;20026;-75
2022/10/31 00:31:00;;;;;;;62.72;48.05;;;;;;;;;;5123265;27;20345;-73
2022/10/31 00:33:26;;;;;;;58.08;44.53;;;;;;;;;;5123320;27;20027;-74
2022/10/31 00:35:51;;;;;;;56.78;42.15;;;;;;;;;;5123807;27;20035;-74
2022/10/31 00:38:17;;;;;;;51.38;39.45;;;;;;;;;;5122723;27;20071;-76
2022/10/31 00:40:42;;;;;;;47.75;36.20;;;;;;;;;;5123861;27;20430;-74
2022/10/31 00:43:07;;;;;;;52.88;39.45;;;;;;;;;;5124860;27;20075;-73
2022/10/31 00:45:33;;;;;;;60.47;44.65;;;;;;;;;;5125080;27;20019;-74
2022/10/31 00:47:58;;;;;;;58.00;43.17;;;;;;;;;;5123595;27;20027;-75
2022/10/31 00:50:23;;;;;;;59.60;43.03;;;;;;;;;;5123344;27;20102;-74
2022/10/31 00:52:49;;;;;;;57.35;42.53;;;;;;;;;;5120636;27;20058;-74
2022/10/31 00:55:14;;;;;;;53.25;42.03;;;;;;;;;;5112735;27;20011;-74
2022/10/31 00:57:39;;;;;;;50.40;40.63;;;;;;;;;;5122101;27;20033;-74
2022/10/31 01:00:05;;;;;;;49.63;39.55;;;;;;;;;;5121869;27;20031;-74
2022/10/31 01:02:30;;;;;;;51.92;39.00;;;;;;;;;;5120718;27;20027;-74
2022/10/31 01:04:56;;;;;;;44.10;34.95;;;;;;;;;;5122713;27;20066;-76
2022/10/31 01:07:22;;;;;;;42.80;34.45;;;;;;;;;;5120411;27;20054;-77
2022/10/31 01:09:49;;;;;;;36.45;28.17;;;;;;;;;;5121911;27;20037;-75
2022/10/31 01:12:14;;;;;;;37.80;30.38;;;;;;;;;;5122325;27;20035;-74
2022/10/31 01:14:46;;;;;;;36.10;31.73;;;;;;;;;;5122686;27;20046;-75
2022/10/31 01:17:12;;;;;;;43.20;33.70;;;;;;;;;;5122483;27;20478;-76
2022/10/31 01:19:37;;;;;;;42.55;33.70;;;;;;;;;;5121550;27;20031;-76
2022/10/31 01:22:02;;;;;;;44.83;33.53;;;;;;;;;;5123416;27;20030;-75
2022/10/31 01:24:28;;;;;;;44.80;34.10;;;;;;;;;;5122593;27;20030;-75
2022/10/31 01:26:53;;;;;;;37.05;30.55;;;;;;;;;;5124077;27;20050;-77
2022/10/31 01:29:18;;;;;;;42.15;32.28;;;;;;;;;;5123070;27;20108;-76
2022/10/31 01:31:44;;;;;;;42.28;33.47;;;;;;;;;;5124028;27;20015;-75
2022/10/31 01:34:12;;;;;;;50.40;38.13;;;;;;;;;;5123600;27;20079;-76
2022/10/31 01:36:38;;;;;;;49.70;40.03;;;;;;;;;;5124532;27;20115;-77
2022/10/31 01:39:07;;;;;;;52.30;40.35;;;;;;;;;;5122446;27;20201;-75
2022/10/31 01:41:35;;;;;;;59.38;47.88;;;;;;;;;;5122956;27;20019;-74
2022/10/31 01:44:23;;;;;;;53.90;41.30;;;;;;;;;;5123048;27;20028;-74
2022/10/31 01:46:51;;;;;;;57.78;44.67;;;;;;;;;;5122816;27;20027;-75
2022/10/31 01:49:35;;;;;;;53.92;43.55;;;;;;;;;;5120177;27;20114;-76
2022/10/31 01:52:09;;;;;;;55.08;40.55;;;;;;;;;;5123063;27;20077;-76
2022/10/31 01:54:37;;;;;;;54.92;40.42;;;;;;;;;;5117844;27;20018;-75
2022/10/31 01:57:04;;;;;;;50.08;36.83;;;;;;;;;;5117254;27;20027;-75
2022/10/31 01:59:31;;;;;;;46.80;37.33;;;;;;;;;;5121614;27;20023;-75
2022/10/31 02:01:57;;;;;;;32.42;27.70;;;;;;;;;;5122794;27;20019;-75
2022/10/31 02:04:23;;;;;;;37.28;28.05;;;;;;;;;;5123044;27;20015;-77
2022/10/31 02:06:51;;;;;;;40.35;29.77;;;;;;;;;;5122529;27;20027;-76
2022/10/31 02:09:17;;;;;;;41.38;30.40;;;;;;;;;;5121447;27;20023;-76
2022/10/31 02:11:44;;;;;;;40.80;29.27;;;;;;;;;;5121205;27;20031;-75
2022/10/31 02:14:09;;;;;;;33.78;23.50;;;;;;;;;;5121701;27;20439;-76
2022/10/31 02:16:34;;;;;;;22.13;18.40;;;;;;;;;;5120385;27;20029;-76
2022/10/31 02:19:00;;;;;;;21.58;16.42;;;;;;;;;;5121630;27;20096;-75
2022/10/31 02:21:25;;;;;;;35.50;27.52;;;;;;;;;;5121057;27;20023;-77
2022/10/31 02:23:53;;;;;;;41.45;31.55;;;;;;;;;;5122418;27;20031;-75
2022/10/31 02:26:18;;;;;;;47.45;36.10;;;;;;;;;;5123345;27;20031;-76
2022/10/31 02:28:59;;;;;;;52.40;38.35;;;;;;;;;;5121823;27;20103;-74
2022/10/31 02:31:32;;;;;;;45.78;35.65;;;;;;;;;;5121058;27;20182;-76
2022/10/31 02:34:18;;;;;;;41.38;30.67;;;;;;;;;;5118095;28;20019;-74
2022/10/31 02:36:53;;;;;;;31.15;26.77;;;;;;;;;;5119657;28;20477;-75
2022/10/31 02:39:22;;;;;;;36.33;27.77;;;;;;;;;;5119583;28;20947;-73
2022/10/31 02:42:11;;;;;;;36.47;30.07;;;;;;;;;;5121340;28;20102;-74
2022/10/31 02:44:38;;;;;;;31.20;26.20;;;;;;;;;;5110405;28;20360;-76
2022/10/31 02:47:33;;;;;;;31.35;25.55;;;;;;;;;;5114013;28;20016;-74
2022/10/31 02:49:58;;;;;;;32.30;26.30;;;;;;;;;;5044140;28;20081;-74
2022/10/31 02:52:25;;;;;;;31.80;24.88;;;;;;;;;;5062179;28;20032;-81
2022/10/31 02:54:51;;;;;;;31.98;25.85;;;;;;;;;;5060710;28;20128;-76
2022/10/31 02:57:18;;;;;;;30.52;25.88;;;;;;;;;;5063115;28;20565;-75
2022/10/31 02:59:48;;;;;;;37.50;32.72;;;;;;;;;;5063095;28;20044;-73
2022/10/31 03:02:20;;;;;;;44.67;39.85;;;;;;;;;;5063057;28;20114;-73
2022/10/31 03:04:51;;;;;;;38.33;33.45;;;;;;;;;;5062150;28;20094;-74
2022/10/31 03:07:23;;;;;;;37.83;31.23;;;;;;;;;;5062629;28;20076;-75
2022/10/31 03:10:04;;;;;;;31.63;25.98;;;;;;;;;;5043449;28;20033;-73
2022/10/31 03:12:42;;;;;;;26.55;22.52;;;;;;;;;;5061021;28;20692;-73
2022/10/31 03:15:19;;;;;;;31.00;26.42;;;;;;;;;;5062788;28;20028;-74
2022/10/31 03:17:55;;;;;;;34.28;27.58;;;;;;;;;;5060761;28;20056;-74
2022/10/31 03:20:24;;;;;;;34.25;28.55;;;;;;;;;;5060663;28;20498;-74
2022/10/31 03:22:49;;;;;;;33.80;28.05;;;;;;;;;;5061981;28;20090;-76
2022/10/31 03:25:16;;;;;;;31.15;24.85;;;;;;;;;;5062845;27;20032;-74
2022/10/31 03:27:42;;;;;;;31.48;23.55;;;;;;;;;;5124151;27;20110;-74
2022/10/31 03:30:08;;;;;;;30.55;22.92;;;;;;;;;;5125320;27;20142;-74
2022/10/31 03:32:39;;;;;;;36.67;27.88;;;;;;;;;;5107989;27;20105;-77
2022/10/31 03:35:06;;;;;;;33.95;27.52;;;;;;;;;;5125455;27;20023;-74
2022/10/31 03:37:32;;;;;;;31.60;26.48;;;;;;;;;;5124872;27;20106;-78
2022/10/31 03:39:59;;;;;;;28.77;25.05;;;;;;;;;;5124041;27;20446;-75
2022/10/31 03:42:26;;;;;;;35.83;26.65;;;;;;;;;;5124021;27;20026;-74
2022/10/31 03:44:55;;;;;;;37.95;29.02;;;;;;;;;;5123435;27;20108;-76
2022/10/31 03:47:21;;;;;;;35.28;27.98;;;;;;;;;;5106913;27;20023;-74
2022/10/31 03:49:46;;;;;;;35.47;27.92;;;;;;;;;;5119703;27;20958;-76
2022/10/31 03:52:17;;;;;;;33.80;27.88;;;;;;;;;;5113547;27;20111;-74
2022/10/31 03:54:43;;;;;;;37.15;31.48;;;;;;;;;;5124625;27;20027;-73
2022/10/31 03:57:29;;;;;;;38.00;31.80;;;;;;;;;;5124442;27;20019;-73
2022/10/31 04:00:08;;;;;;;36.33;30.65;;;;;;;;;;5124632;27;20027;-73
2022/10/31 04:02:37;;;;;;;42.17;29.48;;;;;;;;;;5122068;27;20019;-74
2022/10/31 04:05:03;;;;;;;38.10;29.27;;;;;;;;;;5122064;27;20055;-74
2022/10/31 04:07:30;;;;;;;62.97;39.63;;;;;;;;;;5114315;27;20481;-74
2022/10/31 04:09:57;;;;;;;63.88;43.20;;;;;;;;;;5118670;27;20415;-73
2022/10/31 04:12:23;;;;;;;56.40;38.33;;;;;;;;;;5117902;27;20042;-74
2022/10/31 04:14:50;;;;;;;50.30;35.08;;;;;;;;;;5124905;27;20509;-75
2022/10/31 04:17:17;;;;;;;46.10;31.67;;;;;;;;;;5123040;27;20185;-74
2022/10/31 04:19:43;;;;;;;31.73;26.52;;;;;;;;;;5123600;27;20027;-73
2022/10/31 04:22:08;;;;;;;46.08;30.55;;;;;;;;;;5123715;27;20060;-74
2022/10/31 04:24:34;;;;;;;46.28;31.77;;;;;;;;;;5124349;27;20357;-75
2022/10/31 04:26:59;;;;;;;40.38;31.63;;;;;;;;;;5124832;27;20054;-75
2022/10/31 04:29:24;;;;;;;36.95;30.05;;;;;;;;;;5124381;27;20113;-75
2022/10/31 04:31:50;;;;;;;37.53;29.52;;;;;;;;;;5124331;27;20080;-75
2022/10/31 04:34:15;;;;;;;35.25;28.77;;;;;;;;;;5125309;27;20023;-74
2022/10/31 04:36:40;;;;;;;31.77;27.42;;;;;;;;;;5124859;27;20027;-75
2022/10/31 04:39:06;;;;;;;30.10;26.70;;;;;;;;;;5124677;27;20465;-75
2022/10/31 04:41:31;;;;;;;32.35;27.58;;;;;;;;;;5120811;27;20449;-76
2022/10/31 04:43:56;;;;;;;51.53;39.03;;;;;;;;;;5114812;27;20457;-76
2022/10/31 04:46:22;;;;;;;49.90;41.83;;;;;;;;;;5106988;27;20318;-77
2022/10/31 04:48:47;;;;;;;46.58;38.67;;;;;;;;;;5122243;27;20026;-74
2022/10/31 04:51:12;;;;;;;45.60;38.05;;;;;;;;;;5110518;27;20076;-73
2022/10/31 04:53:38;;;;;;;49.90;42.28;;;;;;;;;;5107282;27;20030;-75
2022/10/31 04:56:03;;;;;;;44.92;40.13;;;;;;;;;;5108990;27;20023;-74
2022/10/31 04:58:29;;;;;;;41.53;36.58;;;;;;;;;;5109029;27;20027;-75
2022/10/31 05:00:54;;;;;;;39.97;35.78;;;;;;;;;;5117127;27;20027;-75
2022/10/31 05:03:20;;;;;;;37.03;31.00;;;;;;;;;;5122635;27;20363;-75
2022/10/31 05:05:45;;;;;;;35.20;31.30;;;;;;;;;;5115115;27;20034;-75
2022/10/31 05:08:10;;;;;;;34.65;29.50;;;;;;;;;;5108379;27;20027;-75
2022/10/31 05:10:36;;;;;;;34.00;28.50;;;;;;;;;;5106559;27;20028;-76
2022/10/31 05:13:02;;;;;;;32.60;27.48;;;;;;;;;;5109737;27;20026;-76
2022/10/31 05:15:28;;;;;;;33.22;27.63;;;;;;;;;;5107375;27;20046;-74
2022/10/31 05:17:54;;;;;;;33.80;28.58;;;;;;;;;;5119623;27;20766;-72
2022/10/31 05:20:20;;;;;;;31.55;28.35;;;;;;;;;;5122029;27;20026;-73
2022/10/31 05:22:50;;;;;;;36.08;29.25;;;;;;;;;;5121452;27;20037;-72
2022/10/31 05:25:15;;;;;;;;;;;;;;;;;;5114718;27;20030;-72
2022/10/31 05:27:41;;;;;;;47.23;42.43;;;;;;;;;;5109707;27;19907;-72
2022/10/31 05:30:07;;;;;;;297.52;202.52;;;;;;;;;;5108896;27;20110;-72
2022/10/31 05:32:38;;;;;;;166.25;114.43;;;;;;;;;;5107616;27;20114;-74
2022/10/31 05:35:04;;;;;;;517.78;366.55;;;;;;;;;;5109646;27;20042;-75
2022/10/31 05:37:29;;;;;;;243.43;170.85;;;;;;;;;;5109062;27;20027;-72
2022/10/31 05:39:55;;;;;;;258.33;184.20;;;;;;;;;;5107465;27;20031;-72
2022/10/31 05:42:20;;;;;;;95.32;66.85;;;;;;;;;;5108208;27;20108;-74
2022/10/31 05:44:45;;;;;;;80.38;55.35;;;;;;;;;;5115614;27;20027;-72
2022/10/31 05:47:11;;;;;;;61.50;42.97;;;;;;;;;;5121254;27;20094;-74
2022/10/31 05:49:36;;;;;;;199.00;145.80;;;;;;;;;;5122370;27;20113;-75
2022/10/31 05:52:01;;;;;;;265.08;200.98;;;;;;;;;;5121908;27;20066;-73
2022/10/31 05:54:27;;;;;;;157.05;124.38;;;;;;;;;;5121081;27;20051;-75
2022/10/31 05:56:52;;;;;;;91.75;71.10;;;;;;;;;;5121718;27;20063;-74
2022/10/31 05:59:17;;;;;;;71.22;56.25;;;;;;;;;;5119850;27;20258;-74
2022/10/31 06:01:43;;;;;;;67.13;50.90;;;;;;;;;;5121824;27;20037;-76
2022/10/31 06:04:08;;;;;;;69.28;56.03;;;;;;;;;;5121713;27;20023;-75
2022/10/31 06:06:33;;;;;;;70.85;58.83;;;;;;;;;;5122783;27;20430;-74
2022/10/31 06:08:59;;;;;;;78.00;59.92;;;;;;;;;;5120655;27;20066;-74
2022/10/31 06:11:24;;;;;;;78.00;61.03;;;;;;;;;;5122617;27;20073;-75
2022/10/31 06:13:49;;;;;;;92.50;78.45;;;;;;;;;;5120682;27;20100;-75
2022/10/31 06:16:15;;;;;;;106.85;83.97;;;;;;;;;;5120803;27;20338;-76
2022/10/31 06:18:40;;;;;;;88.53;71.63;;;;;;;;;;5122579;27;20086;-76
2022/10/31 06:21:05;;;;;;;89.10;79.18;;;;;;;;;;5120542;27;20071;-73
2022/10/31 06:23:31;;;;;;;77.63;63.83;;;;;;;;;;5106058;27;20028;-77
2022/10/31 06:25:56;;;;;;;66.25;55.63;;;;;;;;;;5109140;27;20027;-74
2022/10/31 06:28:21;;;;;;;91.20;73.30;;;;;;;;;;5109881;27;20027;-71
2022/10/31 06:30:47;;;;;;;79.25;64.97;;;;;;;;;;5121930;27;20027;-71
2022/10/31 06:33:12;;;;;;;89.80;69.57;;;;;;;;;;5121401;27;20027;-72
2022/10/31 06:35:37;;;;;;;148.73;109.82;;;;;;;;;;5122183;28;20023;-71
2022/10/31 06:38:03;;;;;;;142.13;104.20;;;;;;;;;;5122561;28;21088;-73
2022/10/31 06:40:28;;;;;;;387.27;273.30;;;;;;;;;;5115875;28;21613;-75
2022/10/31 06:43:00;;;;;;;157.00;113.07;;;;;;;;;;5114227;28;20389;-73
2022/10/31 06:45:26;;;;;;;120.55;91.53;;;;;;;;;;5119639;28;20060;-72
2022/10/31 06:47:52;;;;;;;93.97;74.53;;;;;;;;;;5120250;28;20027;-73
2022/10/31 06:50:19;;;;;;;98.57;80.78;;;;;;;;;;5118796;28;20027;-71
2022/10/31 06:52:49;;;;;;;100.57;76.43;;;;;;;;;;5119133;28;20169;-73
2022/10/31 06:55:14;;;;;;;129.10;97.13;;;;;;;;;;5120787;28;20457;-74
2022/10/31 06:57:40;;;;;;;96.60;77.22;;;;;;;;;;5120369;28;20028;-74
2022/10/31 07:00:05;;;;;;;74.22;61.53;;;;;;;;;;5121539;28;20035;-74
2022/10/31 07:02:31;;;;;;;69.43;56.35;;;;;;;;;;5119252;28;20031;-76
2022/10/31 07:04:56;;;;;;;78.53;64.43;;;;;;;;;;5117642;28;20054;-75
2022/10/31 07:07:21;;;;;;;57.65;48.22;;;;;;;;;;5119073;28;20037;-76
2022/10/31 07:09:47;;;;;;;59.33;46.50;;;;;;;;;;5119939;28;20148;-75
2022/10/31 07:12:12;;;;;;;45.08;39.08;;;;;;;;;;5119600;28;20058;-76
2022/10/31 07:14:37;;;;;;;54.60;47.65;;;;;;;;;;5120609;28;20077;-75
2022/10/31 07:17:03;;;;;;;53.95;47.97;;;;;;;;;;5121521;28;20353;-75
2022/10/31 07:19:28;;;;;;;58.33;51.92;;;;;;;;;;5121701;28;20342;-75
2022/10/31 07:21:53;;;;;;;61.75;48.35;;;;;;;;;;5122306;28;20015;-75
2022/10/31 07:24:19;;;;;;;62.05;45.88;;;;;;;;;;5121068;28;20046;-74
2022/10/31 07:26:47;;;;;;;54.42;40.63;;;;;;;;;;5122271;28;20023;-75
2022/10/31 07:29:12;;;;;;;46.20;38.78;;;;;;;;;;5122233;28;20026;-75
2022/10/31 07:31:37;;;;;;;52.78;43.67;;;;;;;;;;5121634;28;20434;-75
2022/10/31 07:34:03;;;;;;;39.20;31.83;;;;;;;;;;5121044;28;20443;-75
2022/10/31 07:36:28;;;;;;;46.65;35.05;;;;;;;;;;5100958;27;20027;-75
2022/10/31 07:38:53;;;;;;;45.58;36.92;;;;;;;;;;5123987;27;20046;-74
2022/10/31 07:41:19;;;;;;;30.48;25.52;;;;;;;;;;5125718;27;20170;-78
2022/10/31 07:43:45;;;;;;;25.77;22.90;;;;;;;;;;5123408;27;20084;-75
2022/10/31 07:46:11;;;;;;;25.33;21.33;;;;;;;;;;5125272;27;20007;-75
2022/10/31 07:48:36;;;;;;;24.13;20.80;;;;;;;;;;5125097;27;20023;-75
2022/10/31 07:51:01;;;;;;;26.15;20.90;;;;;;;;;;5125169;27;20023;-75
2022/10/31 07:53:27;;;;;;;28.55;25.10;;;;;;;;;;5122751;27;20047;-75
2022/10/31 07:55:52;;;;;;;25.60;22.30;;;;;;;;;;5106585;27;20034;-77
2022/10/31 07:58:18;;;;;;;24.10;21.48;;;;;;;;;;5122318;27;20056;-75
2022/10/31 08:00:44;;;;;;;27.48;24.58;;;;;;;;;;5102326;27;20027;-78
2022/10/31 08:03:10;;;;;;;25.52;22.90;;;;;;;;;;5124908;27;20106;-75
2022/10/31 08:05:36;;;;;;;24.58;20.38;;;;;;;;;;5123598;27;20027;-75
2022/10/31 08:08:02;;;;;;;23.75;21.30;;;;;;;;;;5124495;27;20048;-75
2022/10/31 08:10:27;;;;;;;33.13;27.08;;;;;;;;;;5124174;27;20413;-74
2022/10/31 08:13:12;;;;;;;29.88;26.27;;;;;;;;;;5121779;27;20031;-75
2022/10/31 08:15:39;;;;;;;22.95;20.50;;;;;;;;;;5124682;27;20031;-75
2022/10/31 08:18:14;;;;;;;21.60;16.80;;;;;;;;;;5124588;27;20146;-74
2022/10/31 08:20:40;;;;;;;30.23;21.95;;;;;;;;;;5124858;27;20039;-75
2022/10/31 08:23:05;;;;;;;23.83;21.17;;;;;;;;;;5124814;27;20068;-75
2022/10/31 08:25:32;;;;;;;21.77;19.67;;;;;;;;;;5123434;27;20042;-74
2022/10/31 08:27:57;;;;;;;20.67;18.52;;;;;;;;;;5122844;27;20046;-74
2022/10/31 08:30:24;;;;;;;23.45;19.38;;;;;;;;;;5122814;27;20430;-74
2022/10/31 08:33:06;;;;;;;29.38;26.58;;;;;;;;;;5123438;27;20027;-75
2022/10/31 08:35:32;;;;;;;21.48;19.27;;;;;;;;;;5124126;27;20031;-76
2022/10/31 08:37:58;;;;;;;18.00;16.17;;;;;;;;;;5122988;27;20569;-77
2022/10/31 08:40:24;;;;;;;20.73;17.35;;;;;;;;;;5124243;27;20570;-77
2022/10/31 08:43:02;;;;;;;20.95;18.85;;;;;;;;;;5123692;27;20027;-77
2022/10/31 08:45:28;;;;;;;24.67;22.08;;;;;;;;;;5123796;27;20027;-76
2022/10/31 08:47:58;;;;;;;20.85;18.80;;;;;;;;;;5123026;27;20038;-76
2022/10/31 08:50:23;;;;;;;22.58;20.02;;;;;;;;;;5123881;27;20042;-76
2022/10/31 08:52:49;;;;;;;23.77;21.27;;;;;;;;;;5124170;27;20031;-77
2022/10/31 08:55:14;;;;;;;23.52;20.77;;;;;;;;;;5124093;27;20365;-75
2022/10/31 08:57:39;;;;;;;24.00;21.58;;;;;;;;;;5123726;27;20019;-75
2022/10/31 09:00:05;;;;;;;24.83;21.67;;;;;;;;;;5124369;27;20039;-75
2022/10/31 09:02:30;;;;;;;27.00;21.73;;;;;;;;;;5124495;27;20474;-75
2022/10/31 09:04:56;;;;;;;26.13;21.98;;;;;;;;;;5123223;27;20022;-75
2022/10/31 09:07:21;;;;;;;30.35;21.98;;;;;;;;;;5122925;27;20024;-75
2022/10/31 09:09:46;;;;;;;26.88;20.90;;;;;;;;;;5123281;27;20426;-75
2022/10/31 09:12:12;;;;;;;21.98;19.65;;;;;;;;;;5123453;27;20354;-74
2022/10/31 09:14:37;;;;;;;23.48;21.08;;;;;;;;;;5124249;27;20019;-78
2022/10/31 09:17:02;;;;;;;23.55;20.08;;;;;;;;;;5122414;27;20051;-77
2022/10/31 09:19:28;;;;;;;25.33;21.30;;;;;;;;;;5122935;27;20123;-77
2022/10/31 09:21:53;;;;;;;21.95;18.65;;;;;;;;;;5120809;27;20030;-76
2022/10/31 09:24:19;;;;;;;19.52;17.63;;;;;;;;;;5122927;27;20023;-75
2022/10/31 09:26:44;;;;;;;22.02;19.77;;;;;;;;;;5122540;27;20027;-74
2022/10/31 09:29:09;;;;;;;24.25;20.92;;;;;;;;;;5123612;27;20034;-74
2022/10/31 09:31:35;;;;;;;19.92;17.50;;;;;;;;;;5124471;27;20027;-75
2022/10/31 09:34:00;;;;;;;20.67;18.48;;;;;;;;;;5123412;27;20019;-74
2022/10/31 09:36:26;;;;;;;25.52;18.33;;;;;;;;;;5123443;27;20342;-76
2022/10/31 09:38:51;;;;;;;20.33;18.40;;;;;;;;;;5123493;27;20031;-75
2022/10/31 09:41:40;;;;;;;19.35;17.45;;;;;;;;;;5122650;27;20075;-76
2022/10/31 09:44:11;;;;;;;20.17;18.25;;;;;;;;;;5120755;27;20361;-75
2022/10/31 09:46:46;;;;;;;18.75;16.83;;;;;;;;;;5123474;27;20035;-76
2022/10/31 09:49:14;;;;;;;20.17;17.60;;;;;;;;;;5122913;27;20035;-75
2022/10/31 09:51:42;;;;;;;19.35;17.15;;;;;;;;;;5119760;27;20088;-76
2022/10/31 09:54:10;;;;;;;17.93;16.10;;;;;;;;;;5121953;27;20083;-75
2022/10/31 09:56:36;;;;;;;21.47;14.63;;;;;;;;;;5122798;27;20023;-77
2022/10/31 09:59:03;;;;;;;20.38;14.57;;;;;;;;;;5123028;27;20407;-75
2022/10/31 10:01:37;;;;;;;18.25;15.45;;;;;;;;;;5121946;27;20019;-75
2022/10/31 10:04:16;;;;;;;17.15;13.80;;;;;;;;;;5122852;27;20023;-76
2022/10/31 10:06:44;;;;;;;17.27;15.10;;;;;;;;;;5120751;27;20038;-76
2022/10/31 10:09:10;;;;;;;17.33;13.25;;;;;;;;;;5121615;27;20497;-76
2022/10/31 10:11:41;;;;;;;16.08;14.35;;;;;;;;;;5123618;27;20065;-78
2022/10/31 10:14:06;;;;;;;17.80;14.07;;;;;;;;;;5119462;27;20023;-77
2022/10/31 10:16:44;;;;;;;34.70;13.40;;;;;;;;;;5121554;27;20019;-76
2022/10/31 10:19:18;;;;;;;15.95;14.05;;;;;;;;;;5122592;27;20039;-76
2022/10/31 10:22:07;;;;;;;19.13;14.35;;;;;;;;;;5122424;27;20078;-77
2022/10/31 10:24:49;;;;;;;21.13;16.13;;;;;;;;;;5122002;27;20019;-76
2022/10/31 10:27:40;;;;;;;15.98;14.20;;;;;;;;;;5121455;27;20422;-77
2022/10/31 10:30:18;;;;;;;15.93;14.25;;;;;;;;;;5123641;27;20121;-76
2022/10/31 10:32:56;;;;;;;13.87;12.37;;;;;;;;;;5121143;27;20031;-76
2022/10/31 10:35:28;;;;;;;15.18;12.55;;;;;;;;;;5122503;27;20030;-79
2022/10/31 10:37:59;;;;;;;15.52;12.32;;;;;;;;;;5121073;28;20069;-76
2022/10/31 10:40:26;;;;;;;13.80;11.93;;;;;;;;;;5120295;28;20126;-75
2022/10/31 10:43:23;;;;;;;14.30;12.70;;;;;;;;;;5122264;28;20117;-74
2022/10/31 10:48:44;;;;;;;15.27;13.75;;;;;;;;;;5122185;28;20440;-76
2022/10/31 10:51:23;;;;;;;15.13;13.55;;;;;;;;;;5122666;28;20026;-77
2022/10/31 10:54:00;;;;;;;;;;;;;;;;;;5122070;28;20058;-78
2022/10/31 10:56:45;;;;;;;15.60;13.75;;;;;;;;;;5120796;28;20382;-75
2022/10/31 10:59:13;;;;;;;17.83;15.23;;;;;;;;;;5103546;28;20366;-75
2022/10/31 11:01:40;;;;;;;17.20;12.80;;;;;;;;;;5122123;28;20031;-76
2022/10/31 11:04:14;;;;;;;16.88;10.68;;;;;;;;;;5123219;28;20023;-74
2022/10/31 11:06:40;;;;;;;15.02;10.38;;;;;;;;;;5123055;28;20038;-77
2022/10/31 11:09:09;;;;;;;12.05;10.90;;;;;;;;;;5121157;28;20098;-76
2022/10/31 11:11:35;;;;;;;15.10;10.73;;;;;;;;;;5122368;27;20023;-77
2022/10/31 11:14:03;;;;;;;12.57;11.35;;;;;;;;;;5124874;27;20315;-76
2022/10/31 11:16:39;;;;;;;12.18;10.43;;;;;;;;;;5126328;27;20066;-74
2022/10/31 11:19:07;;;;;;;13.65;10.68;;;;;;;;;;5126493;27;20369;-75
2022/10/31 11:21:34;;;;;;;11.95;10.10;;;;;;;;;;5124916;27;20019;-76
2022/10/31 11:24:08;;;;;;;11.90;10.35;;;;;;;;;;5126461;27;20415;-75
2022/10/31 11:26:35;;;;;;;11.90;10.77;;;;;;;;;;5124143;27;20054;-77
2022/10/31 11:29:02;;;;;;;11.15;10.05;;;;;;;;;;5126038;27;20025;-75
2022/10/31 11:31:28;;;;;;;12.43;11.13;;;;;;;;;;5125377;27;20015;-75
2022/10/31 11:33:58;;;;;;;16.48;12.80;;;;;;;;;;5125666;27;20030;-77
2022/10/31 11:36:50;;;;;;;11.75;10.65;;;;;;;;;;5125488;27;20031;-75
2022/10/31 11:39:18;;;;;;;12.57;11.27;;;;;;;;;;5122679;27;20043;-77
2022/10/31 11:41:43;;;;;;;11.95;10.00;;;;;;;;;;5124846;27;20044;-75
2022/10/31 11:44:13;;;;;;;12.55;10.00;;;;;;;;;;5117832;27;20488;-75
2022/10/31 11:46:42;;;;;;;12.48;11.10;;;;;;;;;;5110786;27;20446;-75
2022/10/31 11:49:28;;;;;;;14.95;11.05;;;;;;;;;;5111925;27;20411;-75
2022/10/31 11:51:55;;;;;;;14.50;11.45;;;;;;;;;;5111169;27;20034;-76
2022/10/31 11:54:26;;;;;;;14.15;12.75;;;;;;;;;;5110417;27;20019;-75
2022/10/31 11:56:52;;;;;;;11.85;10.23;;;;;;;;;;5112167;27;20106;-76
2022/10/31 11:59:37;;;;;;;11.32;10.13;;;;;;;;;;5111133;27;20564;-75
2022/10/31 12:02:16;;;;;;;13.32;10.65;;;;;;;;;;5110678;27;20043;-76
2022/10/31 12:04:43;;;;;;;15.00;10.95;;;;;;;;;;5114569;27;20030;-77
2022/10/31 12:07:08;;;;;;;17.83;10.50;;;;;;;;;;5122841;27;20089;-77
2022/10/31 12:09:34;;;;;;;14.20;10.05;;;;;;;;;;5124596;27;20058;-76
2022/10/31 12:12:06;;;;;;;14.38;10.23;;;;;;;;;;5105920;27;20419;-75
2022/10/31 12:14:40;;;;;;;14.52;10.68;;;;;;;;;;5124828;27;20389;-80
2022/10/31 12:17:15;;;;;;;15.52;11.07;;;;;;;;;;5124970;27;20122;-75
2022/10/31 12:19:52;;;;;;;11.95;10.75;;;;;;;;;;5124475;27;20034;-75
2022/10/31 12:22:18;;;;;;;15.27;10.43;;;;;;;;;;5126143;27;20417;-76
2022/10/31 12:24:54;;;;;;;11.43;10.30;;;;;;;;;;5125193;27;20114;-74
2022/10/31 12:27:34;;;;;;;15.45;11.45;;;;;;;;;;5125381;27;20106;-76
2022/10/31 12:30:03;;;;;;;11.88;9.95;;;;;;;;;;5123674;27;20031;-76
2022/10/31 12:32:48;;;;;;;10.80;9.70;;;;;;;;;;5123177;27;20031;-76
2022/10/31 12:35:20;;;;;;;12.98;10.40;;;;;;;;;;5122903;27;20042;-77
2022/10/31 12:37:45;;;;;;;12.73;10.07;;;;;;;;;;5122820;27;20038;-79
2022/10/31 12:40:29;;;;;;;12.73;9.80;;;;;;;;;;5123551;27;20031;-76
2022/10/31 12:43:05;;;;;;;12.82;9.48;;;;;;;;;;5123642;27;20030;-80
2022/10/31 12:45:36;;;;;;;14.48;10.13;;;;;;;;;;5104686;27;20070;-77
2022/10/31 12:48:10;;;;;;;12.20;10.88;;;;;;;;;;5124491;27;20040;-75
2022/10/31 12:50:38;;;;;;;15.45;12.50;;;;;;;;;;5125504;27;20023;-75
2022/10/31 12:53:07;;;;;;;12.02;9.65;;;;;;;;;;5125043;27;20034;-76
2022/10/31 12:55:38;;;;;;;13.75;10.35;;;;;;;;;;5123778;27;20058;-76
2022/10/31 12:58:09;;;;;;;11.57;9.60;;;;;;;;;;5117751;27;20023;-76
2022/10/31 13:00:37;;;;;;;14.10;9.75;;;;;;;;;;5120653;27;20057;-77
2022/10/31 13:03:21;;;;;;;12.93;10.02;;;;;;;;;;5105586;27;20429;-75
2022/10/31 13:05:51;;;;;;;11.07;9.43;;;;;;;;;;5124107;27;20422;-77
2022/10/31 13:08:26;;;;;;;14.60;9.75;;;;;;;;;;5124048;27;20027;-77
2022/10/31 13:11:10;;;;;;;14.07;9.80;;;;;;;;;;5123528;27;20110;-77
2022/10/31 13:13:38;;;;;;;10.82;9.73;;;;;;;;;;5122435;27;20015;-77
2022/10/31 13:16:07;;;;;;;17.58;11.18;;;;;;;;;;5123364;27;20349;-75
2022/10/31 13:18:35;;;;;;;12.57;10.07;;;;;;;;;;5123939;27;20840;-76
2022/10/31 13:21:03;;;;;;;12.68;9.27;;;;;;;;;;5124592;27;20449;-78
2022/10/31 13:23:35;;;;;;;12.77;8.93;;;;;;;;;;5123142;27;20027;-77
2022/10/31 13:26:12;;;;;;;12.80;9.05;;;;;;;;;;5123571;27;20243;-77
2022/10/31 13:28:38;;;;;;;11.55;9.50;;;;;;;;;;5123551;27;20433;-77
2022/10/31 13:31:03;;;;;;;12.00;9.77;;;;;;;;;;5123047;27;20031;-79
2022/10/31 13:33:41;;;;;;;14.88;12.20;;;;;;;;;;5124381;27;20019;-77
2022/10/31 13:36:06;;;;;;;14.52;11.75;;;;;;;;;;5122797;27;20536;-77
2022/10/31 13:38:41;;;;;;;14.10;11.85;;;;;;;;;;5124120;27;20107;-78
2022/10/31 13:41:19;;;;;;;12.77;9.75;;;;;;;;;;5105747;27;20039;-77
2022/10/31 13:43:59;;;;;;;15.30;9.90;;;;;;;;;;5108930;27;20023;-78
2022/10/31 13:46:41;;;;;;;20.88;18.88;;;;;;;;;;5119578;27;20176;-78
2022/10/31 13:49:35;;;;;;;15.07;11.05;;;;;;;;;;5122318;27;20068;-76
2022/10/31 13:52:10;;;;;;;12.15;9.07;;;;;;;;;;5123383;27;20026;-79
2022/10/31 13:54:36;;;;;;;10.32;9.27;;;;;;;;;;5112135;27;20046;-78
2022/10/31 13:57:06;;;;;;;15.50;9.30;;;;;;;;;;5122919;27;20034;-77
2022/10/31 13:59:31;;;;;;;;;;;;;;;;;;5121147;27;20023;-81
2022/10/31 14:02:00;;;;;;;21.92;15.10;;;;;;;;;;5120561;27;20258;-77
2022/10/31 14:04:25;;;;;;;;;;;;;;;;;;5121919;27;20011;-77
2022/10/31 14:07:04;;;;;;;17.47;15.63;;;;;;;;;;5123798;27;19934;-78
2022/10/31 14:09:33;;;;;;;21.83;12.05;;;;;;;;;;5121715;27;20118;-81
2022/10/31 14:12:00;;;;;;;12.40;9.27;;;;;;;;;;5122854;27;20035;-77
2022/10/31 14:14:29;;;;;;;14.15;9.68;;;;;;;;;;5121916;27;20065;-78
2022/10/31 14:16:56;;;;;;;16.10;10.13;;;;;;;;;;5104866;27;20339;-76
2022/10/31 14:19:22;;;;;;;10.70;9.60;;;;;;;;;;5122470;27;20039;-76
2022/10/31 14:21:48;;;;;;;10.35;9.23;;;;;;;;;;5112451;27;20031;-75
2022/10/31 14:24:22;;;;;;;12.73;9.80;;;;;;;;;;5118268;27;20105;-78
2022/10/31 14:26:58;;;;;;;14.15;9.60;;;;;;;;;;5112643;27;20023;-76
2022/10/31 14:29:25;;;;;;;12.15;10.32;;;;;;;;;;5116436;27;20054;-74
2022/10/31 14:31:55;;;;;;;14.13;10.43;;;;;;;;;;5118087;27;20030;-77